Allen, Kentucky
Current Conditions -  °F | °C
As of 11:55 AM on Saturday 22 Nov 2014 (Local Time) from KPBX Reporting Station
Clear Clear  
Wind Chill: 52°   Ceiling: Unl
Heat Index: 52°   Visibility: 10mi
Dew Point: 23°   Wind: 7mph
Humidity: 32%   Direction: 160°SSE
Pressure: 30.33"   Gusts: NA
Location:  37.61°N, 82.73°W
Report Text: KPBX 221655Z AUTO 16006KT 10SM CLR 11/M05 A3033 RMK AO2 T01111051
Loading
Personal Weather Stations






























Interactive Weather Map New forecast layout! Learn more

10-Day Weather Forecast

Advertisements
Track Severe Weather on mobile